createdAt,value
2017-06-28T00:00:07.460Z,15.98
2017-06-28T00:01:07.490Z,15.92
2017-06-28T00:02:07.532Z,15.89
2017-06-28T00:03:07.571Z,15.98
2017-06-28T00:04:07.597Z,15.92
2017-06-28T00:05:07.615Z,15.89
2017-06-28T00:06:07.919Z,15.86
2017-06-28T00:07:07.697Z,15.91
2017-06-28T00:08:07.729Z,15.91
2017-06-28T00:09:07.778Z,15.81
2017-06-28T00:10:07.802Z,15.84
2017-06-28T00:11:07.812Z,15.83
2017-06-28T00:12:07.858Z,15.83
2017-06-28T00:13:08.097Z,15.84
2017-06-28T00:14:07.912Z,15.89
2017-06-28T00:15:07.918Z,15.89
2017-06-28T00:16:07.992Z,15.84
2017-06-28T00:17:08.006Z,15.8
2017-06-28T00:18:08.067Z,15.84
2017-06-28T00:19:08.092Z,15.8
2017-06-28T00:20:08.112Z,15.77
2017-06-28T00:21:08.159Z,15.73
2017-06-28T00:22:08.198Z,15.71
2017-06-28T00:23:08.214Z,15.83
2017-06-28T00:24:08.285Z,15.77
2017-06-28T00:25:08.282Z,15.67
2017-06-28T00:26:08.334Z,15.74
2017-06-28T00:27:08.358Z,15.68
2017-06-28T00:28:08.399Z,15.75
2017-06-28T00:29:08.442Z,15.71
2017-06-28T00:30:08.451Z,15.71
2017-06-28T00:31:08.512Z,15.75
2017-06-28T00:32:08.532Z,15.7
2017-06-28T00:33:08.573Z,15.73
2017-06-28T00:34:08.613Z,15.74
2017-06-28T00:35:08.616Z,15.73
2017-06-28T00:36:08.656Z,15.73
2017-06-28T00:37:08.703Z,15.73
2017-06-28T00:38:08.735Z,15.7
2017-06-28T00:39:08.818Z,15.7
2017-06-28T00:40:09.009Z,15.71
2017-06-28T00:41:08.818Z,15.73
2017-06-28T00:42:08.860Z,15.7
2017-06-28T00:43:08.900Z,15.74
2017-06-28T00:44:09.068Z,15.74
2017-06-28T00:45:08.989Z,15.7
2017-06-28T00:46:08.975Z,15.73
2017-06-28T00:47:09.048Z,15.7
2017-06-28T00:48:09.079Z,15.7
2017-06-28T00:49:09.552Z,15.68
2017-06-28T00:50:09.377Z,15.62
2017-06-28T00:51:09.191Z,15.59
2017-06-28T00:52:09.195Z,15.55
2017-06-28T00:53:09.200Z,15.6
2017-06-28T00:54:09.260Z,15.68
2017-06-28T00:55:09.482Z,15.7
2017-06-28T00:56:09.346Z,15.59
2017-06-28T00:57:09.360Z,15.55
2017-06-28T00:58:09.480Z,15.62
2017-06-28T00:59:09.406Z,15.59
2017-06-28T01:00:09.717Z,15.68
2017-06-28T01:01:09.490Z,15.56
2017-06-28T01:02:09.514Z,15.62
2017-06-28T01:03:09.563Z,15.6
2017-06-28T01:04:09.604Z,15.59
2017-06-28T01:05:09.742Z,15.55
2017-06-28T01:06:09.780Z,15.58
2017-06-28T01:07:09.701Z,15.55
2017-06-28T01:08:09.719Z,15.62
2017-06-28T01:09:09.771Z,15.56
2017-06-28T01:10:10.072Z,15.58
2017-06-28T01:11:09.829Z,15.63
2017-06-28T01:12:09.902Z,15.55
2017-06-28T01:13:09.894Z,15.6
2017-06-28T01:14:09.907Z,15.6
2017-06-28T01:15:09.959Z,15.67
2017-06-28T01:16:09.991Z,15.56
2017-06-28T01:17:10.049Z,15.59
2017-06-28T01:18:10.103Z,15.51
2017-06-28T01:19:10.080Z,15.45
2017-06-28T01:20:10.125Z,15.56
2017-06-28T01:21:10.158Z,15.56
2017-06-28T01:22:10.394Z,15.52
2017-06-28T01:23:10.223Z,15.52
2017-06-28T01:24:10.328Z,15.45
2017-06-28T01:25:10.280Z,15.55
2017-06-28T01:26:10.308Z,15.56
2017-06-28T01:27:10.341Z,15.56
2017-06-28T01:28:10.390Z,15.53
2017-06-28T01:29:10.423Z,15.56
2017-06-28T01:30:10.438Z,15.51
2017-06-28T01:31:10.476Z,15.51
2017-06-28T01:32:10.510Z,15.51
2017-06-28T01:33:10.557Z,15.41
2017-06-28T01:34:10.593Z,15.4
2017-06-28T01:35:10.619Z,15.41
2017-06-28T01:36:10.643Z,15.4
2017-06-28T01:37:10.689Z,15.41
2017-06-28T01:38:10.713Z,15.41
2017-06-28T01:39:10.754Z,15.37
2017-06-28T01:40:10.773Z,15.38
2017-06-28T01:41:10.796Z,15.34
2017-06-28T01:42:10.855Z,15.34
2017-06-28T01:43:10.883Z,15.27
2017-06-28T01:44:10.918Z,15.34
2017-06-28T01:45:10.932Z,15.31
2017-06-28T01:46:10.981Z,15.4
2017-06-28T01:47:11.016Z,15.41
2017-06-28T01:48:11.053Z,15.44
2017-06-28T01:49:11.080Z,15.4
2017-06-28T01:50:11.118Z,15.35
2017-06-28T01:51:11.198Z,15.4
2017-06-28T01:52:11.180Z,15.37
2017-06-28T01:53:11.219Z,15.38
2017-06-28T01:54:11.253Z,15.3
2017-06-28T01:55:11.285Z,15.3
2017-06-28T01:56:11.311Z,15.33
2017-06-28T01:57:11.356Z,15.3
2017-06-28T01:58:11.382Z,15.25
2017-06-28T01:59:11.420Z,15.25
2017-06-28T02:00:11.546Z,15.23
2017-06-28T02:01:11.467Z,15.22
2017-06-28T02:02:11.495Z,15.22
2017-06-28T02:03:11.533Z,15.22
2017-06-28T02:04:11.580Z,15.22
2017-06-28T02:05:11.587Z,15.2
2017-06-28T02:06:11.643Z,15.22
2017-06-28T02:07:11.656Z,15.23
2017-06-28T02:08:11.711Z,15.2
2017-06-28T02:09:11.732Z,15.22
2017-06-28T02:10:11.874Z,15.13
2017-06-28T02:11:11.814Z,15.18
2017-06-28T02:12:11.809Z,15.13
2017-06-28T02:13:11.875Z,15.07
2017-06-28T02:14:11.911Z,15.15
2017-06-28T02:15:12.013Z,15.13
2017-06-28T02:16:11.970Z,15.2
2017-06-28T02:17:12.010Z,15.23
2017-06-28T02:18:12.048Z,15.26
2017-06-28T02:19:12.067Z,15.23
2017-06-28T02:20:12.102Z,15.2
2017-06-28T02:21:12.134Z,15.23
2017-06-28T02:22:12.160Z,15.19
2017-06-28T02:23:12.185Z,15.26
2017-06-28T02:24:12.208Z,15.33
2017-06-28T02:25:12.271Z,15.23
2017-06-28T02:26:12.300Z,15.26
2017-06-28T02:27:12.305Z,15.27
2017-06-28T02:28:12.371Z,15.31
2017-06-28T02:29:12.400Z,15.37
2017-06-28T02:30:12.411Z,15.37
2017-06-28T02:31:12.443Z,15.4
2017-06-28T02:32:12.511Z,15.43
2017-06-28T02:33:12.513Z,15.37
2017-06-28T02:34:12.571Z,15.34
2017-06-28T02:35:12.593Z,15.38
2017-06-28T02:36:12.618Z,15.37
2017-06-28T02:37:12.665Z,15.4
2017-06-28T02:38:12.697Z,15.45
2017-06-28T02:39:12.711Z,15.41
2017-06-28T02:40:12.767Z,15.41
2017-06-28T02:41:12.794Z,15.51
2017-06-28T02:42:12.814Z,15.49
2017-06-28T02:43:12.888Z,15.53
2017-06-28T02:44:12.896Z,15.56
2017-06-28T02:45:12.923Z,15.59
2017-06-28T02:46:12.963Z,15.51
2017-06-28T02:47:12.990Z,15.55
2017-06-28T02:48:13.021Z,15.6
2017-06-28T02:49:13.030Z,15.59
2017-06-28T02:50:13.103Z,15.58
2017-06-28T02:51:13.125Z,15.59
2017-06-28T02:52:13.145Z,15.63
2017-06-28T02:53:13.192Z,15.77
2017-06-28T02:54:13.233Z,15.7
2017-06-28T02:55:13.251Z,15.77
2017-06-28T02:56:13.286Z,15.75
2017-06-28T02:57:13.324Z,15.71
2017-06-28T02:58:13.350Z,15.71
2017-06-28T02:59:13.388Z,15.77
2017-06-28T03:00:13.621Z,15.77
2017-06-28T03:01:13.434Z,15.74
2017-06-28T03:02:13.485Z,15.73
2017-06-28T03:03:13.525Z,15.88
2017-06-28T03:04:13.525Z,15.84
2017-06-28T03:05:13.567Z,15.88
2017-06-28T03:06:13.625Z,15.81
2017-06-28T03:07:13.633Z,15.88
2017-06-28T03:08:13.693Z,15.89
2017-06-28T03:09:13.721Z,15.89
2017-06-28T03:10:13.724Z,15.89
2017-06-28T03:11:13.783Z,15.89
2017-06-28T03:12:13.827Z,15.88
2017-06-28T03:13:13.891Z,15.96
2017-06-28T03:14:13.873Z,15.96
2017-06-28T03:15:13.921Z,16.02
2017-06-28T03:16:13.931Z,15.93
2017-06-28T03:17:13.965Z,15.98
2017-06-28T03:18:14.021Z,15.98
2017-06-28T03:19:14.033Z,15.96
2017-06-28T03:20:14.105Z,15.95
2017-06-28T03:21:14.126Z,15.95
2017-06-28T03:22:14.135Z,15.95
2017-06-28T03:23:14.166Z,15.99
2017-06-28T03:24:14.186Z,15.98
2017-06-28T03:25:14.247Z,16.08
2017-06-28T03:26:15.692Z,16.04
2017-06-28T03:27:16.821Z,16.07
2017-06-28T03:28:14.387Z,16.04
2017-06-28T03:29:14.365Z,15.98
2017-06-28T03:30:15.037Z,16.07
2017-06-28T03:31:14.426Z,15.99
2017-06-28T03:32:14.463Z,16.07
2017-06-28T03:33:14.516Z,16.11
2017-06-28T03:34:14.551Z,16.06
2017-06-28T03:35:14.587Z,16.17
2017-06-28T03:36:14.608Z,16.13
2017-06-28T03:37:14.632Z,16.14
2017-06-28T03:38:14.679Z,16.11
2017-06-28T03:39:14.703Z,16.1
2017-06-28T03:40:14.752Z,16.16
2017-06-28T03:41:14.780Z,16.1
2017-06-28T03:42:14.834Z,16.13
2017-06-28T03:43:14.838Z,16.18
2017-06-28T03:44:14.914Z,16.13
2017-06-28T03:45:14.937Z,16.13
2017-06-28T03:46:14.944Z,16.17
2017-06-28T03:47:14.976Z,16.11
2017-06-28T03:48:14.998Z,16.16
2017-06-28T03:49:15.039Z,16.16
2017-06-28T03:50:15.075Z,16.13
2017-06-28T03:51:15.104Z,16.14
2017-06-28T03:52:15.144Z,16.17
2017-06-28T03:53:15.150Z,16.14
2017-06-28T03:54:15.195Z,16.11
2017-06-28T03:55:15.237Z,16.14
2017-06-28T03:56:15.277Z,16.1
2017-06-28T03:57:15.311Z,16.07
2017-06-28T03:58:15.335Z,16.02
2017-06-28T03:59:15.383Z,16.1
2017-06-28T04:00:33.620Z,16.13
2017-06-28T04:01:20.906Z,16.13
2017-06-28T04:02:20.961Z,16.08
2017-06-28T04:03:20.994Z,16.16
2017-06-28T04:04:21.036Z,16.13
2017-06-28T04:05:21.088Z,16.07
2017-06-28T04:06:21.100Z,16.02
2017-06-28T04:07:21.156Z,16.08
2017-06-28T04:08:21.206Z,16.11
2017-06-28T04:09:21.170Z,16.07
2017-06-28T04:10:21.275Z,15.98
2017-06-28T04:11:21.285Z,15.96
2017-06-28T04:12:21.292Z,16.1
2017-06-28T04:13:21.449Z,16.17
2017-06-28T04:14:21.390Z,16.14
2017-06-28T04:15:21.418Z,16.29
2017-06-28T04:16:21.479Z,16.52
2017-06-28T04:17:21.463Z,16.91
2017-06-28T04:18:21.522Z,17.35
2017-06-28T04:19:21.529Z,17.79
2017-06-28T04:20:21.596Z,18.24
2017-06-28T04:21:21.618Z,18.54
2017-06-28T04:22:21.636Z,18.61
2017-06-28T04:23:21.633Z,18.75
2017-06-28T04:24:21.709Z,18.78
2017-06-28T04:25:21.709Z,18.9
2017-06-28T04:26:21.784Z,19.06
2017-06-28T04:27:21.855Z,19.34
2017-06-28T04:28:21.846Z,19.8
2017-06-28T04:29:21.887Z,20.27
2017-06-28T04:30:21.888Z,20.93
2017-06-28T04:31:21.968Z,21.23
2017-06-28T04:32:22.028Z,21.45
2017-06-28T04:33:22.023Z,21.38
2017-06-28T04:34:22.056Z,21.16
2017-06-28T04:35:22.085Z,20.78
2017-06-28T04:36:22.141Z,20.41
2017-06-28T04:37:22.128Z,20.04
2017-06-28T04:38:22.219Z,19.72
2017-06-28T04:39:22.241Z,19.49
2017-06-28T04:40:22.294Z,19.2
2017-06-28T04:41:22.305Z,18.87
2017-06-28T04:42:22.363Z,18.78
2017-06-28T04:43:22.384Z,18.69
2017-06-28T04:44:22.428Z,18.57
2017-06-28T04:45:22.451Z,18.61
2017-06-28T04:46:22.510Z,18.71
2017-06-28T04:47:22.526Z,18.84
2017-06-28T04:48:22.568Z,19
2017-06-28T04:49:22.618Z,19.31
2017-06-28T04:50:22.636Z,19.65
2017-06-28T04:51:22.651Z,19.55
2017-06-28T04:52:22.681Z,19.32
2017-06-28T04:53:22.767Z,19.25
2017-06-28T04:54:22.777Z,19.19
2017-06-28T04:55:22.860Z,19.23
2017-06-28T04:56:22.847Z,19.2
2017-06-28T04:57:22.887Z,19.27
2017-06-28T04:58:22.922Z,19.16
2017-06-28T04:59:22.949Z,19.07
2017-06-28T05:00:28.737Z,19.07
2017-06-28T05:01:23.009Z,19.17
2017-06-28T05:02:23.057Z,19.17
2017-06-28T05:03:23.074Z,19.19
2017-06-28T05:04:24.300Z,19.31
2017-06-28T05:05:24.879Z,19.63
2017-06-28T05:06:23.728Z,19.57
2017-06-28T05:07:23.459Z,19.53
2017-06-28T05:08:23.293Z,19.56
2017-06-28T05:09:23.314Z,19.42
2017-06-28T05:10:23.330Z,19.43
2017-06-28T05:11:23.394Z,19.38
2017-06-28T05:12:23.430Z,19.53
2017-06-28T05:13:23.464Z,19.8
2017-06-28T05:14:23.484Z,19.95
2017-06-28T05:15:23.534Z,20.04
2017-06-28T05:16:23.571Z,20.18
2017-06-28T05:17:23.591Z,20.35
2017-06-28T05:18:23.688Z,20.41
2017-06-28T05:19:23.685Z,20.67
2017-06-28T05:20:23.929Z,21.04
2017-06-28T05:21:23.781Z,21.33
2017-06-28T05:22:23.793Z,21.58
2017-06-28T05:23:23.833Z,21.58
2017-06-28T05:24:23.845Z,21.51
2017-06-28T05:25:23.949Z,21.3
2017-06-28T05:26:23.918Z,21.23
2017-06-28T05:27:23.977Z,21.06
2017-06-28T05:28:24.022Z,21.06
2017-06-28T05:29:24.049Z,20.91
2017-06-28T05:30:26.909Z,20.74
2017-06-28T05:31:24.113Z,20.6
2017-06-28T05:32:24.213Z,20.58
2017-06-28T05:33:24.214Z,20.29
2017-06-28T05:34:24.468Z,20.32
2017-06-28T05:35:24.383Z,20.1
2017-06-28T05:36:24.304Z,20.23
2017-06-28T05:37:24.348Z,20.37
2017-06-28T05:38:24.368Z,20.74
2017-06-28T05:39:24.430Z,21.15
2017-06-28T05:40:24.486Z,21.21
2017-06-28T05:41:24.501Z,21.36
2017-06-28T05:42:24.534Z,21.21
2017-06-28T05:43:24.593Z,21.01
2017-06-28T05:44:24.611Z,20.88
2017-06-28T05:45:24.671Z,20.72
2017-06-28T05:46:24.681Z,20.51
2017-06-28T05:47:24.732Z,20.4
2017-06-28T05:48:24.996Z,20.37
2017-06-28T05:49:24.813Z,20.37
2017-06-28T05:50:24.871Z,20.37
2017-06-28T05:51:24.875Z,20.41
2017-06-28T05:52:25.131Z,20.61
2017-06-28T05:53:24.949Z,20.79
2017-06-28T05:54:24.982Z,20.91
2017-06-28T05:55:25.041Z,21.08
2017-06-28T05:56:25.059Z,21.06
2017-06-28T05:57:25.068Z,21.09
2017-06-28T05:58:25.147Z,21.15
2017-06-28T05:59:25.142Z,21.04
2017-06-28T06:00:32.546Z,21
2017-06-28T06:01:25.263Z,21.09
2017-06-28T06:02:25.251Z,21.15
2017-06-28T06:03:25.407Z,21.31
2017-06-28T06:04:25.349Z,21.22
2017-06-28T06:05:25.500Z,21.31
2017-06-28T06:06:25.421Z,21.18
2017-06-28T06:07:25.447Z,21.23
2017-06-28T06:08:25.508Z,21.36
2017-06-28T06:09:25.512Z,21.59
2017-06-28T06:10:25.604Z,21.77
2017-06-28T06:11:25.631Z,22.09
2017-06-28T06:12:25.604Z,22.33
2017-06-28T06:13:25.683Z,22.27
2017-06-28T06:14:25.745Z,22.26
2017-06-28T06:15:25.758Z,22.22
2017-06-28T06:16:25.789Z,22.31
2017-06-28T06:17:25.803Z,22.69
2017-06-28T06:18:25.865Z,23.21
2017-06-28T06:19:25.943Z,23.77
2017-06-28T06:20:25.941Z,24.33
2017-06-28T06:21:25.993Z,24.63
2017-06-28T06:22:26.014Z,25.17
2017-06-28T06:23:26.078Z,25.81
2017-06-28T06:24:26.117Z,26.5
2017-06-28T06:25:26.136Z,27.04
2017-06-28T06:26:26.193Z,27.74
2017-06-28T06:27:26.182Z,28.36
2017-06-28T06:28:26.281Z,28.72
2017-06-28T06:29:26.288Z,28.9
2017-06-28T06:30:26.314Z,29.18
2017-06-28T06:31:26.351Z,29.6
2017-06-28T06:32:26.430Z,29.85
2017-06-28T06:33:26.429Z,29.92
2017-06-28T06:34:26.498Z,29.97
2017-06-28T06:35:26.531Z,30.09
2017-06-28T06:36:26.587Z,30.13
2017-06-28T06:37:26.608Z,30.02
2017-06-28T06:38:26.644Z,30.09
2017-06-28T06:39:26.714Z,30
2017-06-28T06:40:26.794Z,30
2017-06-28T06:41:26.796Z,30.16
2017-06-28T06:42:26.814Z,30.48
2017-06-28T06:43:26.879Z,30.84
2017-06-28T06:44:26.900Z,31.22
2017-06-28T06:45:26.918Z,31.68
2017-06-28T06:46:27.166Z,32.16
2017-06-28T06:47:27.018Z,32.16
2017-06-28T06:48:27.102Z,32.13
2017-06-28T06:49:27.114Z,32.49
2017-06-28T06:50:27.145Z,32.46
2017-06-28T06:51:27.242Z,32.54
2017-06-28T06:52:27.234Z,32.71
2017-06-28T06:53:27.280Z,33.01
2017-06-28T06:54:27.377Z,33.37
2017-06-28T06:55:27.368Z,33.66
2017-06-28T06:56:27.842Z,33.74
2017-06-28T06:57:27.419Z,34.05
2017-06-28T06:58:27.542Z,34.43
2017-06-28T06:59:27.525Z,34.48
2017-06-28T07:00:27.573Z,34.61
2017-06-28T07:01:27.645Z,34.69
2017-06-28T07:02:27.695Z,34.51
2017-06-28T07:03:27.686Z,34.79
2017-06-28T07:04:27.730Z,34.54
2017-06-28T07:05:27.811Z,34.34
2017-06-28T07:06:27.806Z,34.19
2017-06-28T07:07:27.895Z,34.24
2017-06-28T07:08:27.927Z,34.24
2017-06-28T07:09:27.938Z,34.49
2017-06-28T07:10:27.996Z,34.36
2017-06-28T07:11:28.051Z,34.18
2017-06-28T07:12:28.136Z,33.66
2017-06-28T07:13:28.137Z,33.23
2017-06-28T07:14:28.231Z,32.99
2017-06-28T07:15:28.220Z,33.03
2017-06-28T07:16:28.258Z,32.98
2017-06-28T07:17:28.364Z,33.09
2017-06-28T07:18:28.367Z,33.06
2017-06-28T07:19:28.447Z,33.41
2017-06-28T07:20:28.471Z,33.58
2017-06-28T07:21:30.201Z,33.83
2017-06-28T07:22:28.510Z,33.66
2017-06-28T07:23:28.552Z,33.5
2017-06-28T07:24:28.634Z,32.91
2017-06-28T07:25:28.729Z,32.53
2017-06-28T07:26:28.690Z,32.35
2017-06-28T07:27:28.770Z,32.68
2017-06-28T07:28:28.773Z,32.96
2017-06-28T07:29:28.824Z,32.98
2017-06-28T07:30:28.886Z,33.36
2017-06-28T07:31:28.932Z,33.69
2017-06-28T07:32:28.987Z,33.92
2017-06-28T07:33:29.018Z,33.8
2017-06-28T07:34:29.054Z,33.74
2017-06-28T07:35:29.074Z,33.89
2017-06-28T07:36:29.147Z,34.08
2017-06-28T07:37:29.254Z,34.14
2017-06-28T07:38:29.219Z,34.15
2017-06-28T07:39:29.273Z,34.17
2017-06-28T07:40:29.310Z,34.54
2017-06-28T07:41:29.412Z,34.46
2017-06-28T07:42:29.387Z,34.45
2017-06-28T07:43:29.407Z,34.37
2017-06-28T07:44:29.523Z,34.83
2017-06-28T07:45:29.548Z,35.2
2017-06-28T07:46:29.602Z,35.9
2017-06-28T07:47:29.634Z,36.15
2017-06-28T07:48:29.638Z,36.05
2017-06-28T07:49:29.719Z,36.01
2017-06-28T07:50:29.762Z,35.9
2017-06-28T07:51:29.845Z,35.55
2017-06-28T07:52:29.835Z,35.55
2017-06-28T07:53:29.911Z,35.4
2017-06-28T07:54:29.928Z,35.38
2017-06-28T07:55:30.004Z,34.87
2017-06-28T07:56:30.048Z,34.93
2017-06-28T07:57:30.045Z,34.97
2017-06-28T07:58:30.079Z,35.42
2017-06-28T07:59:30.172Z,35.57
2017-06-28T08:00:30.202Z,35.83
2017-06-28T08:01:30.262Z,36.17
2017-06-28T08:02:30.306Z,35.62
2017-06-28T08:03:30.324Z,34.75
2017-06-28T08:04:30.356Z,34.11
2017-06-28T08:05:30.432Z,33.92
2017-06-28T08:06:30.517Z,34.02
2017-06-28T08:07:30.524Z,34.17
2017-06-28T08:08:30.582Z,34.41
2017-06-28T08:09:30.588Z,34.74
2017-06-28T08:10:30.652Z,35.35
2017-06-28T08:11:30.710Z,35.86
2017-06-28T08:12:30.787Z,36.33
2017-06-28T08:13:30.799Z,36.4
2017-06-28T08:14:30.909Z,36.81
2017-06-28T08:15:30.874Z,37.51
2017-06-28T08:16:30.949Z,37.88
2017-06-28T08:17:30.945Z,38.35
2017-06-28T08:18:31.030Z,38.18
2017-06-28T08:19:31.052Z,38.39
2017-06-28T08:20:31.076Z,37.64
2017-06-28T08:21:31.147Z,37.04
2017-06-28T08:22:31.219Z,36.15
2017-06-28T08:23:31.211Z,35.79
2017-06-28T08:24:31.273Z,35.47
2017-06-28T08:25:31.301Z,35.42
2017-06-28T08:26:31.371Z,35.11
2017-06-28T08:27:31.414Z,34.61
2017-06-28T08:28:31.461Z,34.72
2017-06-28T08:29:31.510Z,35.05
2017-06-28T08:30:31.555Z,35.58
2017-06-28T08:31:31.595Z,36.12
2017-06-28T08:32:31.656Z,36.52
2017-06-28T08:33:31.739Z,37.12
2017-06-28T08:34:31.738Z,37.72
2017-06-28T08:35:31.811Z,37.87
2017-06-28T08:36:31.831Z,37.24
2017-06-28T08:37:31.952Z,36.81
2017-06-28T08:38:31.949Z,36.71
2017-06-28T08:39:31.946Z,36.78
2017-06-28T08:40:32.013Z,36.86
2017-06-28T08:41:32.037Z,36.81
2017-06-28T08:42:32.098Z,36.84
2017-06-28T08:43:32.145Z,37.14
2017-06-28T08:44:32.218Z,37.33
2017-06-28T08:45:32.265Z,36.96
2017-06-28T08:46:32.305Z,36.26
2017-06-28T08:47:32.379Z,35.61
2017-06-28T08:48:32.403Z,35.64
2017-06-28T08:49:32.440Z,35.92
2017-06-28T08:50:32.503Z,36.04
2017-06-28T08:51:32.540Z,36.28
2017-06-28T08:52:32.559Z,36.46
2017-06-28T08:53:32.612Z,36.71
2017-06-28T08:54:32.644Z,36.8
2017-06-28T08:55:32.704Z,36.75
2017-06-28T08:56:32.748Z,36.75
2017-06-28T08:57:32.835Z,36.4
2017-06-28T08:58:32.891Z,36.61
2017-06-28T08:59:32.868Z,36.63
2017-06-28T09:00:32.965Z,36.8
2017-06-28T09:01:32.991Z,36.52
2017-06-28T09:02:33.045Z,36.61
2017-06-28T09:03:33.130Z,36.89
2017-06-28T09:04:33.199Z,37.36
2017-06-28T09:05:33.194Z,38.13
2017-06-28T09:06:33.211Z,38.61
2017-06-28T09:07:33.255Z,37.88
2017-06-28T09:08:33.279Z,37.22
2017-06-28T09:09:33.354Z,36.39
2017-06-28T09:10:33.441Z,35.69
2017-06-28T09:11:33.448Z,35.5
2017-06-28T09:12:33.562Z,35.49
2017-06-28T09:13:33.574Z,36.14
2017-06-28T09:14:33.598Z,37.07
2017-06-28T09:15:33.628Z,37.75
2017-06-28T09:16:33.670Z,38.05
2017-06-28T09:17:33.753Z,38.06
2017-06-28T09:18:33.746Z,38.27
2017-06-28T09:19:33.791Z,37.79
2017-06-28T09:20:33.895Z,37.75
2017-06-28T09:21:33.881Z,37.69
2017-06-28T09:22:33.959Z,37.74
2017-06-28T09:23:33.987Z,38.17
2017-06-28T09:24:34.031Z,38.3
2017-06-28T09:25:34.130Z,37.87
2017-06-28T09:26:34.123Z,37.8
2017-06-28T09:27:34.244Z,38.12
2017-06-28T09:28:34.250Z,38.1
2017-06-28T09:29:34.321Z,38.12
2017-06-28T09:30:34.357Z,38.1
2017-06-28T09:31:34.348Z,38.71
2017-06-28T09:32:34.432Z,38.7
2017-06-28T09:33:34.497Z,38.65
2017-06-28T09:34:34.505Z,38.27
2017-06-28T09:35:34.562Z,38.27
2017-06-28T09:36:34.629Z,37.75
2017-06-28T09:37:34.688Z,37.88
2017-06-28T09:38:34.690Z,38.42
2017-06-28T09:39:34.742Z,39.01
2017-06-28T09:40:34.845Z,39.49
2017-06-28T09:41:34.857Z,39.18
2017-06-28T09:42:34.897Z,39.03
2017-06-28T09:43:34.957Z,38.46
2017-06-28T09:44:35.006Z,37.45
2017-06-28T09:45:35.041Z,36.56
2017-06-28T09:46:35.147Z,36.47
2017-06-28T09:47:35.200Z,36.33
2017-06-28T09:48:35.223Z,36.56
2017-06-28T09:49:35.260Z,36.97
2017-06-28T09:50:35.287Z,37.41
2017-06-28T09:51:35.340Z,37.75
2017-06-28T09:52:35.358Z,38.09
2017-06-28T09:53:35.500Z,37.88
2017-06-28T09:54:35.502Z,37.02
2017-06-28T09:55:35.514Z,36.47
2017-06-28T09:56:35.573Z,36.47
2017-06-28T09:57:35.637Z,36.14
2017-06-28T09:58:35.687Z,35.94
2017-06-28T09:59:35.760Z,35.8
2017-06-28T10:00:35.779Z,35.86
2017-06-28T10:01:35.784Z,36.24
2017-06-28T10:02:35.855Z,36.46
2017-06-28T10:03:35.942Z,36.86
2017-06-28T10:04:35.952Z,36.73
2017-06-28T10:05:36.244Z,35.43
2017-06-28T10:06:36.068Z,34.96
2017-06-28T10:07:36.085Z,35.16
2017-06-28T10:08:36.138Z,35.08
2017-06-28T10:09:36.232Z,34.4
2017-06-28T10:10:36.247Z,33.83
2017-06-28T10:11:36.293Z,34.14
2017-06-28T10:12:36.364Z,33.4
2017-06-28T10:13:36.361Z,33.23
2017-06-28T10:14:36.412Z,33.21
2017-06-28T10:15:36.430Z,33.36
2017-06-28T10:16:36.496Z,33.28
2017-06-28T10:17:36.581Z,33.58
2017-06-28T10:18:36.590Z,33.93
2017-06-28T10:19:36.644Z,34.12
2017-06-28T10:20:36.681Z,34.39
2017-06-28T10:21:36.753Z,35.23
2017-06-28T10:22:36.749Z,35.84
2017-06-28T10:23:36.848Z,36.4
2017-06-28T10:24:36.885Z,36.97
2017-06-28T10:25:36.930Z,37.62
2017-06-28T10:26:36.948Z,38.1
2017-06-28T10:27:37.029Z,38.18
2017-06-28T10:28:37.046Z,38.47
2017-06-28T10:29:37.059Z,38.93
2017-06-28T10:30:37.109Z,38.89
2017-06-28T10:31:37.182Z,38.93
2017-06-28T10:32:37.256Z,38.15
2017-06-28T10:33:37.291Z,37.62
2017-06-28T10:34:37.338Z,37.3
2017-06-28T10:35:37.362Z,36.26
2017-06-28T10:36:37.424Z,34.83
2017-06-28T10:37:37.457Z,34.15
2017-06-28T10:38:37.503Z,34.79
2017-06-28T10:39:37.527Z,35.42
2017-06-28T10:40:37.606Z,35.99
2017-06-28T10:41:37.622Z,36.47
2017-06-28T10:42:37.647Z,36.71
2017-06-28T10:43:37.749Z,35.99
2017-06-28T10:44:37.737Z,35.39
2017-06-28T10:45:37.822Z,34.96
2017-06-28T10:46:37.834Z,34.05
2017-06-28T10:47:37.869Z,34.22
2017-06-28T10:48:37.931Z,33.8
2017-06-28T10:49:37.980Z,33.53
2017-06-28T10:50:38.020Z,34.18
2017-06-28T10:51:38.082Z,34.86
2017-06-28T10:52:38.151Z,35.65
2017-06-28T10:53:38.167Z,36.39
2017-06-28T10:54:38.173Z,36.96
2017-06-28T10:55:38.230Z,37.23
2017-06-28T10:56:38.295Z,37.27
2017-06-28T10:57:38.335Z,37.24
2017-06-28T10:58:38.392Z,37.68
2017-06-28T10:59:38.382Z,38.02
2017-06-28T11:00:38.470Z,38.08
2017-06-28T11:01:38.637Z,38.31
2017-06-28T11:02:38.510Z,37.71
2017-06-28T11:03:38.593Z,37.17
2017-06-28T11:04:38.587Z,37.27
2017-06-28T11:05:38.660Z,37.39
2017-06-28T11:06:38.699Z,37.24
2017-06-28T11:07:38.787Z,37.19
2017-06-28T11:08:38.765Z,36.95
2017-06-28T11:09:38.817Z,36.26
2017-06-28T11:10:38.835Z,35.95
2017-06-28T11:11:38.896Z,35.34
2017-06-28T11:12:38.940Z,35.09
2017-06-28T11:13:38.984Z,35.2
2017-06-28T11:14:39.021Z,35.16
2017-06-28T11:15:39.071Z,35.43
2017-06-28T11:16:39.131Z,35.58
2017-06-28T11:17:39.176Z,35.61
2017-06-28T11:18:39.186Z,35.5
2017-06-28T11:19:39.224Z,35.6
2017-06-28T11:20:39.244Z,35.92
2017-06-28T11:21:39.347Z,35.82
2017-06-28T11:22:39.353Z,36.01
2017-06-28T11:23:39.391Z,36.14
2017-06-28T11:24:39.439Z,35.58
2017-06-28T11:25:39.461Z,34.66
2017-06-28T11:26:39.564Z,33.9
2017-06-28T11:27:39.649Z,34.11
2017-06-28T11:28:39.635Z,34.77
2017-06-28T11:29:39.641Z,35.15
2017-06-28T11:30:39.677Z,35.28
2017-06-28T11:31:39.777Z,35.34
2017-06-28T11:32:39.849Z,34.86
2017-06-28T11:33:39.823Z,34.08
2017-06-28T11:34:39.863Z,33.18
2017-06-28T11:35:39.897Z,32.31
2017-06-28T11:36:39.927Z,31.55
2017-06-28T11:37:40.000Z,31.04
2017-06-28T11:38:39.978Z,30.57
2017-06-28T11:39:40.089Z,30.06
2017-06-28T11:40:40.137Z,29.89
2017-06-28T11:41:40.132Z,29.79
2017-06-28T11:42:40.155Z,29.75
2017-06-28T11:43:40.220Z,29.47
2017-06-28T11:44:40.257Z,29.24
2017-06-28T11:45:40.349Z,29.11
2017-06-28T11:46:40.381Z,29.15
2017-06-28T11:47:40.358Z,29.13
2017-06-28T11:48:40.386Z,29.01
2017-06-28T11:49:40.492Z,28.94
2017-06-28T11:50:40.537Z,28.8
2017-06-28T11:51:40.547Z,28.67
2017-06-28T11:52:40.561Z,28.58
2017-06-28T11:53:40.626Z,28.61
2017-06-28T11:54:40.652Z,28.73
2017-06-28T11:55:40.725Z,28.85
2017-06-28T11:56:40.787Z,29.03
2017-06-28T11:57:40.746Z,29.06
2017-06-28T11:58:40.821Z,29.18
2017-06-28T11:59:40.855Z,29.08
2017-06-28T12:00:40.904Z,29.06
2017-06-28T12:01:40.968Z,29.01
2017-06-28T12:02:40.982Z,29.06
2017-06-28T12:03:41.044Z,29.05
2017-06-28T12:04:41.062Z,29.05
2017-06-28T12:05:41.125Z,28.83
2017-06-28T12:06:41.127Z,28.67
2017-06-28T12:07:41.187Z,28.67
2017-06-28T12:08:41.215Z,28.63
2017-06-28T12:09:41.251Z,28.6
2017-06-28T12:10:41.293Z,28.65
2017-06-28T12:11:41.346Z,28.64
2017-06-28T12:12:41.383Z,28.51
2017-06-28T12:13:41.419Z,28.53
2017-06-28T12:14:41.440Z,28.42
2017-06-28T12:15:41.482Z,28.35
2017-06-28T12:16:41.527Z,28.48
2017-06-28T12:17:41.634Z,28.6
2017-06-28T12:18:41.599Z,28.61
2017-06-28T12:19:41.666Z,28.7
2017-06-28T12:20:41.734Z,28.65
2017-06-28T12:21:41.728Z,28.67
2017-06-28T12:22:41.788Z,28.57
2017-06-28T12:23:41.844Z,28.58
2017-06-28T12:24:41.865Z,28.55
2017-06-28T12:25:41.884Z,28.45
2017-06-28T12:26:41.940Z,28.35
2017-06-28T12:27:41.989Z,28.28
2017-06-28T12:28:42.002Z,28.2
2017-06-28T12:29:42.062Z,28.23
2017-06-28T12:30:42.108Z,28.16
2017-06-28T12:31:42.156Z,28.08
2017-06-28T12:32:42.167Z,28.05
2017-06-28T12:33:42.201Z,28.01
2017-06-28T12:34:42.245Z,28.05
2017-06-28T12:35:42.331Z,28.09
2017-06-28T12:36:42.376Z,28.14
2017-06-28T12:37:42.614Z,28.3
2017-06-28T12:38:42.422Z,28.35
2017-06-28T12:39:42.497Z,28.33
2017-06-28T12:40:42.507Z,28.28
2017-06-28T12:41:42.532Z,28.27
2017-06-28T12:42:42.603Z,28.18
2017-06-28T12:43:42.651Z,28.28
2017-06-28T12:44:42.662Z,28.24
2017-06-28T12:45:42.933Z,28.17
2017-06-28T12:46:42.720Z,28.14
2017-06-28T12:47:42.805Z,28.17
2017-06-28T12:48:42.837Z,28.18
2017-06-28T12:49:42.868Z,28.2
2017-06-28T12:50:42.925Z,28.18
2017-06-28T12:51:42.970Z,28.14
2017-06-28T12:52:42.996Z,28.08
2017-06-28T12:53:43.023Z,28.06
2017-06-28T12:54:43.071Z,27.94
2017-06-28T12:55:43.081Z,27.84